Tiempo atmosférico en la estación meteorológica de Hervas, Cáceres (738 m.)



Fecha
DESCASC
Temp. máxima en grados centígrados (hora)
DESCASC
Temp. mínima en grados centígrados (hora)
DESCASC
Temp. media en grados centígrados
DESCASC
Racha de viento máxima en m/sg (hora)
DESCASC
Velocidad máxima media en intervalos de 10 minutos(hora)
DESCASC
Precipitaciones diarias en mm
DESCASC
Precipitaciones de 00:00 a 06:00 en mm
DESCASC
Precipitaciones de 06:00 a 12:00 en mm
DESCASC
Precipitaciones de 12:00 a 18:00 en mm
DESCASC
Precipitaciones de 18:00 a 24:00 en mm
DESCASC
31-03-2020 11.7 (16:30) 1.5 (07:50) 6.6 11.11 (23:40) 6.39 (23:40) 0.8 0 0.6 0 0.2
30-03-2020 10.1 (00:40) 2.1 (23:59) 6.1 6.39 (14:20) 3.61 (14:20) 1 0 0 0.4 0.6
29-03-2020 16.5 (17:20) 4.3 (00:00) 10.4 6.11 (18:10) 3.89 (01:40) 0 0 0 0 0
28-03-2020 14.6 (17:00) 1.2 (00:00) 7.9 5.56 (16:10) 3.61 (20:20) 0 0 0 0 0
27-03-2020 12.2 (17:50) 2.6 (00:00) 7.4 8.61 (15:10) 5 (15:30) 0 0 0 0 0
26-03-2020 15.8 (15:00) 3.9 (00:00) 9.9 10 (15:40) 5.28 (13:00) 0 0 0 0 0
25-03-2020 15.1 (17:40) 6.1 (00:00) 10.6 7.78 (20:30) 3.61 (20:30) 0.8 0 0 0.6 0.2
24-03-2020 15.5 (17:20) 6.5 (00:00) 11 5.56 (10:40) 3.06 (10:40) 0 0 0 0 0
23-03-2020 12.7 (18:10) 4.3 (00:00) 8.5 4.44 (02:40) 2.78 (08:00) 0.6 0 0 0.6 0
22-03-2020 11.9 (13:30) 3.1 (07:30) 7.5 5 (16:30) 3.33 (07:50) 4 0 0 3.2 0.8
21-03-2020 13.3 (00:40) 4 (00:00) 8.7 17.5 (01:10) 6.67 (01:10) 25.6 10.4 14.8 0.4 0
20-03-2020 13.8 (17:10) 8.8 (00:00) 11.3 13.89 (20:50) 6.94 (13:00) 15.4 0 2.4 0 13
19-03-2020 13.8 (15:40) 7.9 (00:00) 10.9 5.28 (00:10) 2.22 (07:10) 0 0 0 0 0
18-03-2020 18.7 (16:10) 6.6 (00:00) 12.7 5.28 (06:20) 2.78 (02:30) 0 0 0 0 0
17-03-2020 14.9 (17:30) 0.3 (00:00) 7.6 6.11 (10:50) 3.89 (20:30) 0 0 0 0 0
16-03-2020 4.1 (00:10) 0.8 (00:00) 2.4 8.06 (11:50) 3.89 (11:50) 39.6 1.4 14.6 20.8 2.8
15-03-2020 17.5 (14:50) 4 (00:00) 10.8 11.11 (22:40) 6.11 (22:40) 0.8 0 0 0 0.8
14-03-2020 19.9 (17:20) 7.5 (00:00) 13.7 8.89 (00:50) 3.89 (20:20) 0 0 0 0 0
13-03-2020 18.2 (15:50) 9.5 (23:50) 13.9 6.67 (19:30) 3.89 (19:30) 0 0 0 0 0
12-03-2020 21.5 (15:20) 13.6 (00:00) 17.6 7.78 (06:00) 3.61 (05:20) 0 0 0 0 0
11-03-2020 22.4 (16:30) 10.7 (00:00) 16.5 5.28 (07:50) 3.33 (07:50) 0 0 0 0 0
10-03-2020 20.2 (17:20) 7.1 (00:00) 13.7 5 (13:20) 3.33 (13:00) 0 0 0 0 0
09-03-2020 17.8 (15:20) 4 (00:00) 10.9 9.17 (16:50) 4.72 (15:30) 0 0 0 0 0
08-03-2020 14.2 (13:30) 3.7 (00:00) 8.9 9.72 (22:40) 3.89 (00:10) 0 0 0 0 0
07-03-2020 15.2 (18:30) 2.3 (00:00) 8.7 7.22 (01:40) 4.17 (21:20) 0 0 0 0 0
06-03-2020 10.3 (16:40) 4.7 (00:00) 7.5 15 (14:30) 7.78 (14:20) 1.4 1.4 0 0 0
05-03-2020 13.1 (16:40) 6.1 (00:00) 9.6 13.61 (07:30) 5 (18:10) 6 0.2 5.8 0 0
04-03-2020 13.8 (17:10) 9.3 (00:00) 11.6 5.83 (12:50) 2.78 (13:00) 1 0.8 0.2 0 0
03-03-2020 11 (21:20) 4 (00:00) 7.5 5 (04:10) 2.5 (11:20) 6.2 0 1.6 4 0.6
02-03-2020 11.5 (00:00) 3.7 (00:00) 7.6 18.61 (00:30) 7.78 (03:50) 13.4 13.2 0 0.2 0

Gráficas

Temp. máximas Temp. mínimas Temp. medias Precipitaciones Rachas de viento máximas Velocidades máximas media en intervalos de 10 minutos

Datos horarios

Fecha y hora oficial Temperatura (ºC) Velocidad del viento (km/h) Dirección del viento Racha (km/h) Dirección de racha Precipitación (mm) Presión (hPa) Tendencia (hPa) Humedad (%)
2020-03-31 23:00:00 9.3 15 Sur 34 Sudeste 0 -- -- 70
2020-03-31 22:00:00 9 12 Sudeste 27 Sudeste 0 -- -- 72
2020-03-31 21:00:00 9.3 3 Nordeste 21 Sur 0 -- -- 75
2020-03-31 20:00:00 10.4 13 Sudoeste 32 Sudoeste 0.2 -- -- 70
2020-03-31 19:00:00 10.6 7 Sudoeste 30 Sur 0 -- -- 71
2020-03-31 18:00:00 10.7 12 Sudeste 27 Sudeste 0 -- -- 72
2020-03-31 17:00:00 11.1 10 Sudeste 28 Sudeste 0 -- -- 70
2020-03-31 16:00:00 11.1 8 Noroeste 18 Noroeste 0 -- -- 74
2020-03-31 15:00:00 9.1 5 Noroeste 12 Noroeste 0 -- -- 80
2020-03-31 14:00:00 7 5 Norte 9 Noroeste 0 -- -- 83
2020-03-31 13:00:00 5.6 6 Noroeste 12 Oeste 0 -- -- 84
2020-03-31 12:00:00 4.8 3 Oeste 13 Oeste 0 -- -- 88
2020-03-31 11:00:00 4.8 6 Oeste 12 Oeste 0 -- -- 87
2020-03-31 10:00:00 4.5 3 Noroeste 7 Oeste 0 -- -- 89
2020-03-31 09:00:00 2 2 Oeste 5 Sudeste 0.2 -- -- 97
2020-03-31 08:00:00 1.5 2 Sudoeste 5 Sudeste 0.2 -- -- 96
2020-03-31 07:00:00 2 2 Sudoeste 4 Oeste 0.2 -- -- 93
2020-03-31 06:00:00 1.9 0 Calma 9 Sudoeste 0 -- -- 92
2020-03-31 05:00:00 2 3 Oeste 10 Sudoeste 0 -- -- 91
2020-03-31 04:00:00 2.1 0 Calma 6 Sur 0 -- -- 94
2020-03-31 03:00:00 2 2 Sudoeste 8 Sudoeste 0 -- -- 91
2020-03-31 02:00:00 2 5 Oeste 19 Noroeste 0 -- -- 92
2020-03-31 01:00:00 2.2 5 Sudoeste 11 Sudoeste 0 -- -- 93
2020-03-31 00:00:00 2.1 3 Sudoeste 7 Sudoeste 0 -- -- 96
2020-03-30 23:00:00 2.3 3 Sudoeste 6 Sudoeste 0.2 -- -- 94
2020-03-30 22:00:00 2.4 4 Sudoeste 11 Oeste 0.2 -- -- 93
2020-03-30 21:00:00 2.4 5 Sudoeste 11 Sudoeste 0 -- -- 93
2020-03-30 20:00:00 3 5 Sur 12 Sudoeste 0.2 -- -- 90
2020-03-30 19:00:00 3.4 5 Sudoeste 18 Sudoeste 0 -- -- 88
2020-03-30 18:00:00 3.7 4 Sudoeste 16 Noroeste 0.4 -- -- 89
2020-03-30 17:00:00 5.9 5 Oeste 17 Noroeste 0 -- -- 74
2020-03-30 16:00:00 6.5 5 Oeste 20 Noroeste 0 -- -- 74
2020-03-30 15:00:00 6.5 7 Noroeste 23 Noroeste 0 -- -- 73
2020-03-30 14:00:00 5.9 8 Oeste 16 Oeste 0 -- -- 77
2020-03-30 13:00:00 5.6 6 Oeste 15 Noroeste 0 -- -- 79
2020-03-30 12:00:00 5.5 5 Sur 12 Noroeste 0 -- -- 79
2020-03-30 11:00:00 5.1 4 Sudoeste 13 Sudoeste 0 -- -- 81
2020-03-30 10:00:00 5.1 6 Sudoeste 15 Sudoeste 0 -- -- 84
2020-03-30 09:00:00 5.7 7 Sudoeste 17 Nordeste 0 -- -- 82
2020-03-30 08:00:00 6.2 5 Sudoeste 13 Sudoeste 0 -- -- 78
2020-03-30 07:00:00 6.6 5 Sudoeste 14 Sudoeste 0 -- -- 78
2020-03-30 06:00:00 6.9 5 Sudoeste 15 Oeste 0 -- -- 77
2020-03-30 05:00:00 7.5 8 Sudoeste 17 Sudoeste 0 -- -- 74
2020-03-30 04:00:00 7.9 3 Sur 14 Sur 0 -- -- 76
2020-03-30 03:00:00 8.2 5 Sur 13 Sur 0 -- -- 75
2020-03-30 02:00:00 8.8 7 Sur 12 Sur 0 -- -- 72
2020-03-30 01:00:00 10 8 Sur 15 Sur 0 -- -- 67
2020-03-30 00:00:00 9.7 10 Sur 13 Sur 0 -- -- 68
2020-03-29 23:00:00 9.9 8 Sur 13 Sur 0 -- -- 68
2020-03-29 22:00:00 9.7 7 Sur 14 Sur 0 -- -- 69
2020-03-29 21:00:00 11.7 7 Sur 13 Oeste 0 -- -- 62
2020-03-29 20:00:00 14.3 5 Oeste 19 Sudoeste 0 -- -- 52
2020-03-29 19:00:00 15.2 6 Oeste 22 Noroeste 0 -- -- 50
2020-03-29 18:00:00 15.9 9 Oeste 20 Oeste 0 -- -- 48
2020-03-29 17:00:00 15.6 9 Oeste 20 Oeste 0 -- -- 47
2020-03-29 16:00:00 15.4 6 Oeste 19 Noroeste 0 -- -- 50
2020-03-29 15:00:00 15.5 8 Noroeste 16 Sudoeste 0 -- -- 52
2020-03-29 14:00:00 14.7 7 Oeste 17 Noroeste 0 -- -- 51
2020-03-29 13:00:00 14.6 6 Noroeste 17 Noroeste 0 -- -- 47
2020-03-29 12:00:00 13.9 6 Noroeste 15 Noroeste 0 -- -- 47
2020-03-29 11:00:00 12.7 5 Noroeste 10 Oeste 0 -- -- 51
2020-03-29 10:00:00 9.1 4 Sur 13 Sur 0 -- -- 73
2020-03-29 09:00:00 4.6 7 Sudeste 15 Sur 0 -- -- 81
2020-03-29 08:00:00 4.8 7 Sudeste 13 Sur 0 -- -- 77
2020-03-29 07:00:00 4.7 9 Sur 13 Sudeste 0 -- -- 79
2020-03-29 06:00:00 4.9 8 Sudeste 15 Sur 0 -- -- 78
2020-03-29 05:00:00 5 10 Sur 18 Sur 0 -- -- 77
2020-03-29 03:00:00 6.1 12 Sur 17 Sur 0 -- -- 72
2020-03-29 01:00:00 5.4 8 Sudeste 14 Sur 0 -- -- 78
2020-03-29 00:00:00 5.9 9 Sudeste 15 Sur 0 -- -- 76
2020-03-28 23:00:00 5.9 9 Sur 13 Sur 0 -- -- 77
2020-03-28 22:00:00 6.7 10 Sur 16 Sur 0 -- -- 74
2020-03-28 21:00:00 7.4 8 Sudeste 15 Sur 0 -- -- 71
2020-03-28 20:00:00 9.6 11 Sur 14 Sur 0 -- -- 62
2020-03-28 19:00:00 12.7 0 Calma 9 Noroeste 0 -- -- 51
2020-03-28 18:00:00 13.5 5 Noroeste 19 Oeste 0 -- -- 52
2020-03-28 17:00:00 14.6 7 Oeste 20 Oeste 0 -- -- 53
2020-03-28 16:00:00 14.3 9 Oeste 18 Oeste 0 -- -- 47
2020-03-28 15:00:00 13.5 11 Noroeste 20 Noroeste 0 -- -- 51
2020-03-28 14:00:00 12.4 7 Oeste 19 Noroeste 0 -- -- 57
2020-03-28 13:00:00 11.3 9 Noroeste 17 Noroeste 0 -- -- 59
2020-03-28 12:00:00 10.5 6 Noroeste 13 Noroeste 0 -- -- 59
2020-03-28 11:00:00 9 6 Oeste 12 Oeste 0 -- -- 63
2020-03-28 10:00:00 8.6 0 Calma 8 Nordeste 0 -- -- 63
2020-03-28 09:00:00 6.2 2 Este 10 Sur 0 -- -- 76
2020-03-28 08:00:00 1.7 7 Sudeste 12 Sur 0 -- -- 90
2020-03-28 07:00:00 1.2 7 Sudeste 10 Sur 0 -- -- 91
2020-03-28 06:00:00 1.6 5 Sudeste 10 Sur 0 -- -- 90
2020-03-28 05:00:00 2.5 5 Sur 14 Sur 0 -- -- 85
2020-03-28 04:00:00 2.6 8 Sudeste 19 Sur 0 -- -- 85
2020-03-28 03:00:00 2.5 9 Sur 13 Sur 0 -- -- 86
2020-03-28 02:00:00 2.7 9 Sur 12 Sur 0 -- -- 86
2020-03-28 01:00:00 2.3 7 Sudeste 13 Sur 0 -- -- 89
2020-03-28 00:00:00 3.1 6 Sudeste 12 Sur 0 -- -- 86
2020-03-27 23:00:00 3.5 6 Sudeste 12 Sudeste 0 -- -- 86
2020-03-27 22:00:00 4.3 8 Sur 13 Sur 0 -- -- 82
2020-03-27 21:00:00 5.9 9 Sur 12 Sur 0 -- -- 76
2020-03-27 20:00:00 8.7 3 Sur 13 Oeste 0 -- -- 63
2020-03-27 19:00:00 10.5 5 Noroeste 12 Noroeste 0 -- -- 61
2020-03-27 18:00:00 12.1 6 Norte 14 Noroeste 0 -- -- 52
2020-03-27 17:00:00 11.1 6 Este 29 Sudeste 0 -- -- 52
2020-03-27 16:00:00 9.3 12 Sudeste 31 Sur 0 -- -- 64
2020-03-27 15:00:00 8.5 17 Sur 30 Sur 0 -- -- 64
2020-03-27 14:00:00 9.1 9 Sur 20 Sur 0 -- -- 61
2020-03-27 13:00:00 9.1 9 Noroeste 17 Oeste 0 -- -- 59
2020-03-27 12:00:00 8.4 4 Oeste 15 Oeste 0 -- -- 64
2020-03-27 11:00:00 8.2 5 Oeste 15 Noroeste 0 -- -- 65
2020-03-27 10:00:00 7.2 6 Oeste 13 Sudoeste 0 -- -- 65
2020-03-27 09:00:00 5.6 0 Calma 8 Este 0 -- -- 82
2020-03-27 08:00:00 2.8 6 Sudeste 8 Sudeste 0 -- -- 90
2020-03-27 07:00:00 3.3 2 Nordeste 11 Sur 0 -- -- 85
2020-03-27 06:00:00 2.6 2 Sudeste 6 Sudeste 0 -- -- 90
2020-03-27 05:00:00 3.5 2 Sur 8 Sur 0 -- -- 88
2020-03-27 04:00:00 4 4 Sur 12 Sur 0 -- -- 87
2020-03-27 03:00:00 5.3 9 Sur 14 Sur 0 -- -- 80
2020-03-27 02:00:00 6.5 7 Sudoeste 14 Sur 0 -- -- 77
2020-03-27 01:00:00 5.9 7 Sudeste 13 Sur 0 -- -- 84
2020-03-27 00:00:00 7.1 6 Sudeste 15 Sudeste 0 -- -- 77
2020-03-26 23:00:00 7 6 Sudeste 10 Sur 0 -- -- 72
2020-03-26 22:00:00 8.2 5 Sudeste 10 Sur 0 -- -- 69
2020-03-26 21:00:00 8.6 7 Sudeste 12 Sur 0 -- -- 68
2020-03-26 20:00:00 11.6 4 Sudeste 14 Nordeste 0 -- -- 59
2020-03-26 19:00:00 15 5 Norte 22 Nordeste 0 -- -- 46
2020-03-26 18:00:00 15.4 11 Norte 26 Nordeste 0 -- -- 48
2020-03-26 17:00:00 15.8 12 Noroeste 31 Noroeste 0 -- -- 41
2020-03-26 16:00:00 15.8 14 Norte 36 Noroeste 0 -- -- 41
2020-03-26 15:00:00 15.8 10 Norte 32 Noroeste 0 -- -- 41
2020-03-26 14:00:00 15 14 Norte 32 Norte 0 -- -- 37
2020-03-26 13:00:00 14.8 19 Noroeste 31 Noroeste 0 -- -- 31
2020-03-26 12:00:00 14.1 13 Norte 25 Norte 0 -- -- 41
2020-03-26 11:00:00 12.1 13 Norte 24 Norte 0 -- -- 47
2020-03-26 10:00:00 10.5 7 Sudoeste 20 Sudoeste 0 -- -- 55
2020-03-26 09:00:00 8.3 9 Sudoeste 18 Sudoeste 0 -- -- 58
2020-03-26 08:00:00 4.7 6 Sur 14 Sur 0 -- -- 63
2020-03-26 07:00:00 3.9 9 Sur 14 Sur 0 -- -- 69
2020-03-26 06:00:00 4.6 9 Sur 14 Sur 0 -- -- 66
2020-03-26 05:00:00 5.6 8 Sur 17 Sur 0 -- -- 62
2020-03-26 04:00:00 5.8 9 Sudeste 13 Sudeste 0 -- -- 82
2020-03-26 03:00:00 6.9 7 Sudeste 17 Sudeste 0 -- -- 83
2020-03-26 02:00:00 8.2 7 Sudeste 14 Sudeste 0 -- -- 82
2020-03-26 01:00:00 10.8 7 Nordeste 21 Norte 0 -- -- 78
2020-03-26 00:00:00 10.2 5 Sudeste 10 Sur 0 -- -- 90
2020-03-25 23:00:00 10.4 5 Sudeste 10 Sur 0 -- -- 90
2020-03-25 22:00:00 10.1 5 Sudeste 17 Sur 0 -- -- 90
2020-03-25 21:00:00 11.1 8 Sur 28 Nordeste 0.2 -- -- 86
2020-03-25 20:00:00 12.4 4 Sudeste 9 Sudeste 0 -- -- 85
2020-03-25 19:00:00 13 4 Este 11 Este 0 -- -- 84
2020-03-25 18:00:00 14.7 7 Noroeste 15 Noroeste 0 -- -- 70
2020-03-25 17:00:00 13.6 5 Este 14 Nordeste 0.4 -- -- 85
2020-03-25 16:00:00 13.8 6 Este 14 Noroeste 0 -- -- 79
2020-03-25 15:00:00 13.7 7 Oeste 13 Oeste 0.2 -- -- 73
2020-03-25 14:00:00 13.1 6 Noroeste 13 Oeste 0 -- -- 71
2020-03-25 13:00:00 12.2 7 Noroeste 14 Noroeste 0 -- -- 74
2020-03-25 12:00:00 11.5 7 Noroeste 17 Noroeste 0 -- -- 75
2020-03-25 11:00:00 11.2 7 Noroeste 12 Oeste 0 -- -- 78
2020-03-25 10:00:00 9.4 0 Calma 2 Noroeste 0 -- -- 87
2020-03-25 09:00:00 7.9 0 Calma 4 Sudeste 0 -- -- 93
2020-03-25 08:00:00 7.3 3 Sur 5 Sudeste 0 -- -- 93
2020-03-25 07:00:00 7.9 3 Sudeste 4 Sudeste 0 -- -- 90
2020-03-25 06:00:00 8.4 0 Calma 5 Noroeste 0 -- -- 87
2020-03-25 05:00:00 8.3 3 Sudeste 5 Sur 0 -- -- 90
2020-03-25 04:00:00 8.1 3 Sudeste 7 Sudeste 0 -- -- 90
2020-03-25 03:00:00 7.2 6 Sudeste 12 Sur 0 -- -- 89
2020-03-25 02:00:00 6.7 6 Sur 12 Sur 0 -- -- 93
2020-03-25 01:00:00 6.4 6 Sudeste 10 Sur 0 -- -- 93
2020-03-25 00:00:00 7.1 7 Sur 11 Sur 0 -- -- 90
2020-03-24 23:00:00 8.4 5 Sudeste 12 Sudeste 0 -- -- 87
2020-03-24 22:00:00 10.3 5 Sur 10 Sudeste 0 -- -- 82
2020-03-24 21:00:00 11.4 3 Sudeste 8 Este 0 -- -- 78
2020-03-24 20:00:00 12.8 3 Sur 6 Sur 0 -- -- 72
2020-03-24 19:00:00 14.3 0 Calma 6 Noroeste 0 -- -- 64
2020-03-24 18:00:00 14.6 5 Oeste 16 Oeste 0 -- -- 59
2020-03-24 17:00:00 14.5 4 Oeste 13 Noroeste 0 -- -- 62
2020-03-24 16:00:00 14.2 5 Oeste 14 Oeste 0 -- -- 62
2020-03-24 15:00:00 14.5 6 Noroeste 19 Noroeste 0 -- -- 63
2020-03-24 14:00:00 13.3 10 Noroeste 17 Noroeste 0 -- -- 66
2020-03-24 13:00:00 12.9 5 Oeste 13 Norte 0 -- -- 63
2020-03-24 12:00:00 12.7 6 Oeste 14 Oeste 0 -- -- 65
2020-03-24 11:00:00 12.3 6 Oeste 20 Noroeste 0 -- -- 62
2020-03-24 10:00:00 12.2 6 Oeste 16 Oeste 0 -- -- 67
2020-03-24 09:00:00 9.2 5 Sur 12 Sur 0 -- -- 83
2020-03-24 08:00:00 7.6 7 Sur 14 Sur 0 -- -- 82
2020-03-24 07:00:00 7.5 9 Sur 14 Sur 0 -- -- 81
2020-03-24 06:00:00 7.2 5 Sur 13 Sudeste 0 -- -- 84
2020-03-24 05:00:00 9 8 Este 18 Sudeste 0 -- -- 76
2020-03-24 04:00:00 8.5 8 Sur 14 Sur 0 -- -- 83
2020-03-24 03:00:00 8.8 3 Nordeste 11 Oeste 0 -- -- 81
2020-03-24 02:00:00 8.8 2 Este 9 Sur 0 -- -- 83
2020-03-24 01:00:00 8 5 Sudeste 10 Sudeste 0 -- -- 88
2020-03-24 00:00:00 7.7 6 Sudeste 13 Sur 0 -- -- 88
2020-03-23 23:00:00 7.3 6 Sudeste 13 Sur 0 -- -- 90
2020-03-23 22:00:00 7.5 0 Calma 10 Sur 0 -- -- 86
2020-03-23 21:00:00 7.6 4 Sur 12 Sudeste 0 -- -- 89
2020-03-23 20:00:00 9 4 Sur 12 Sur 0 -- -- 89
2020-03-23 19:00:00 12.7 2 Sudoeste 14 Noroeste 0 -- -- 74
2020-03-23 18:00:00 12.6 5 Oeste 15 Oeste 0 -- -- 75
2020-03-23 17:00:00 12.6 8 Noroeste 15 Noroeste 0 -- -- 76
2020-03-23 16:00:00 11.6 6 Noroeste 12 Oeste 0.6 -- -- 82
2020-03-23 15:00:00 11.8 5 Oeste 13 Noroeste 0 -- -- 75
2020-03-23 14:00:00 11.7 5 Noroeste 12 Oeste 0 -- -- 77
2020-03-23 13:00:00 11.5 4 Noroeste 10 Noroeste 0 -- -- 75
2020-03-23 12:00:00 10.8 4 Noroeste 8 Noroeste 0 -- -- 79
2020-03-23 11:00:00 10.2 3 Sudoeste 12 Noroeste 0 -- -- 78
2020-03-23 10:00:00 10.3 4 Norte 9 Norte 0 -- -- 78
2020-03-23 09:00:00 7.3 4 Sudeste 11 Sur 0 -- -- 96
2020-03-23 08:00:00 4.8 10 Sur 14 Sur 0 -- -- 99
2020-03-23 07:00:00 4.8 5 Sudeste 10 Sur 0 -- -- 97
2020-03-23 06:00:00 5.2 4 Sudeste 14 Sur 0 -- -- 97
2020-03-23 05:00:00 5.4 8 Sur 15 Sur 0 -- -- 95
2020-03-23 04:00:00 6 5 Sur 13 Sur 0 -- -- 93
2020-03-23 03:00:00 7.1 4 Sudoeste 16 Sudoeste 0 -- -- 90
2020-03-23 02:00:00 6.5 4 Este 14 Este 0 -- -- 93
2020-03-23 01:00:00 7.1 7 Sudeste 14 Sudeste 0 -- -- 95
2020-03-23 00:00:00 7 4 Sudeste 11 Sur 0 -- -- 97
2020-03-22 23:00:00 7 6 Sudeste 12 Sur 0 -- -- 97
2020-03-22 22:00:00 7.8 3 Sudeste 9 Sur 0 -- -- 96
2020-03-22 21:00:00 8.2 4 Sur 9 Sur 0 -- -- 96
2020-03-22 20:00:00 8.8 3 Sur 6 Sudeste 0.2 -- -- 95
2020-03-22 19:00:00 9.4 2 Sudeste 12 Sudeste 0.6 -- -- 95
2020-03-22 18:00:00 9 5 Sudeste 17 Sudeste 0.6 -- -- 91
2020-03-22 17:00:00 9 8 Sudeste 18 Este 1 -- -- 90
2020-03-22 16:00:00 10.4 6 Sudeste 10 Noroeste 1.6 -- -- 86
2020-03-22 15:00:00 11.5 5 Noroeste 14 Noroeste 0 -- -- 72
2020-03-22 14:00:00 11.5 10 Noroeste 17 Noroeste 0 -- -- 74
2020-03-22 13:00:00 11.1 6 Oeste 14 Oeste 0 -- -- 69
2020-03-22 12:00:00 10.8 4 Norte 10 Oeste 0 -- -- 70
2020-03-22 11:00:00 9.1 6 Noroeste 13 Noroeste 0 -- -- 76
2020-03-22 10:00:00 8.3 3 Noroeste 9 Noroeste 0 -- -- 78
2020-03-22 09:00:00 6.7 3 Sudeste 13 Sur 0 -- -- 90
2020-03-22 08:00:00 4 10 Sur 15 Sur 0 -- -- 92
2020-03-22 07:00:00 3.8 10 Sur 14 Sur 0 -- -- 93
2020-03-22 06:00:00 4.2 7 Sur 12 Sur 0 -- -- 94
2020-03-22 05:00:00 4.1 8 Sur 12 Sur 0 -- -- 94
2020-03-22 04:00:00 3.7 8 Sudeste 12 Sur 0 -- -- 97
2020-03-22 03:00:00 3.5 7 Sur 11 Sur 0 -- -- 95
2020-03-22 02:00:00 3.5 7 Sur 13 Sur 0 -- -- 95
2020-03-22 01:00:00 3.9 9 Sur 13 Sur 0 -- -- 94
2020-03-22 00:00:00 4 8 Sudeste 12 Sur 0 -- -- 94
2020-03-21 23:00:00 4.3 6 Sudeste 11 Sur 0 -- -- 94
2020-03-21 22:00:00 4.7 9 Sur 15 Sur 0 -- -- 94
2020-03-21 21:00:00 5.6 5 Sudeste 14 Sur 0 -- -- 88
2020-03-21 20:00:00 6.9 9 Sur 12 Sur 0 -- -- 81
2020-03-21 19:00:00 10.5 4 Noroeste 12 Noroeste 0 -- -- 70
2020-03-21 18:00:00 11.1 5 Nordeste 10 Nordeste 0 -- -- 65
2020-03-21 17:00:00 9.6 2 Noroeste 14 Noroeste 0 -- -- 74
2020-03-21 16:00:00 9 10 Noroeste 15 Oeste 0 -- -- 81
2020-03-21 15:00:00 8.3 5 Oeste 15 Noroeste 0 -- -- 89
2020-03-21 14:00:00 7.8 4 Noroeste 17 Norte 0 -- -- 93
2020-03-21 13:00:00 7.4 5 Oeste 12 Noroeste 0.4 -- -- 95
2020-03-21 12:00:00 6.5 4 Norte 9 Oeste 0.4 -- -- 99
2020-03-21 11:00:00 6.1 3 Oeste 6 Noroeste 0.4 -- -- 99
2020-03-21 10:00:00 5.6 3 Nordeste 11 Oeste 2.2 -- -- 100
2020-03-21 09:00:00 5.4 4 Sudoeste 17 Oeste 3.6 -- -- 100
2020-03-21 08:00:00 6.5 5 Noroeste 10 Noroeste 4.6 -- -- 100
2020-03-21 07:00:00 6.7 0 Calma 20 Oeste 3.6 -- -- 100
2020-03-21 06:00:00 6.9 9 Noroeste 17 Oeste 1.4 -- -- 100
2020-03-21 05:00:00 7.2 3 Norte 23 Sur 1.4 -- -- 99
2020-03-21 04:00:00 7.5 3 Nordeste 36 Oeste 2.6 -- -- 98
2020-03-21 03:00:00 9.9 13 Sudoeste 52 Sur 3 -- -- 87
2020-03-21 02:00:00 11.5 15 Sudeste 63 Sur 0.8 -- -- 77
2020-03-21 01:00:00 12.2 18 Sur 57 Sur 1.2 -- -- 75
2020-03-21 00:00:00 12.5 7 Este 42 Este 0 -- -- 72
2020-03-20 23:00:00 11.5 9 Oeste 26 Este 0 -- -- 79
2020-03-20 22:00:00 11.1 7 Oeste 38 Sudeste 4.4 -- -- 83
2020-03-20 21:00:00 10.6 21 Sudeste 50 Sudeste 8.6 -- -- 85
2020-03-20 20:00:00 11.4 5 Oeste 14 Noroeste 0 -- -- 82
2020-03-20 19:00:00 12.3 4 Oeste 35 Sudeste 0 -- -- 78
2020-03-20 18:00:00 13.3 18 Sudeste 31 Sudeste 0 -- -- 68
2020-03-20 17:00:00 13.7 10 Sur 32 Sudeste 0 -- -- 68
2020-03-20 16:00:00 12.7 13 Sudeste 46 Sudeste 0 -- -- 75
2020-03-20 15:00:00 12.2 18 Sudeste 33 Este 0 -- -- 77
2020-03-20 14:00:00 11.7 7 Nordeste 29 Sur 0 -- -- 81
2020-03-20 13:00:00 11.6 25 Sudeste 44 Sudeste 0 -- -- 80
2020-03-20 12:00:00 9 0 Calma 13 Noroeste 2 -- -- 98
2020-03-20 11:00:00 9.3 9 Noroeste 19 Noroeste 0.2 -- -- 93
2020-03-20 10:00:00 9.9 4 Oeste 33 Sudoeste 0.2 -- -- 90
2020-03-20 09:00:00 9.9 6 Noroeste 22 Oeste 0 -- -- 85
2020-03-20 08:00:00 9 5 Norte 10 Noroeste 0 -- -- 89
2020-03-20 07:00:00 10 3 Noroeste 25 Sur 0 -- -- 81
2020-03-20 06:00:00 9 4 Sudeste 10 Sur 0 -- -- 86
2020-03-20 05:00:00 8.8 4 Sudeste 9 Sudeste 0 -- -- 86
2020-03-20 04:00:00 10.6 2 Sur 23 Este 0 -- -- 77
2020-03-20 03:00:00 10.4 7 Este 24 Este 0 -- -- 78
2020-03-20 02:00:00 9.9 4 Sur 10 Sur 0 -- -- 83
2020-03-20 01:00:00 9.9 0 Calma 8 Sudeste 0 -- -- 82
2020-03-20 00:00:00 10.1 2 Sur 7 Sudeste 0 -- -- 81
2020-03-19 23:00:00 10.2 4 Sur 10 Sur 0 -- -- 83
2020-03-19 22:00:00 9.3 6 Sur 12 Sudeste 0 -- -- 87
2020-03-19 21:00:00 9.9 7 Sudeste 12 Sudeste 0 -- -- 86
2020-03-19 20:00:00 10.5 5 Sudeste 9 Sudeste 0 -- -- 86
2020-03-19 19:00:00 12.4 0 Calma 3 Oeste 0 -- -- 78
2020-03-19 18:00:00 13.1 2 Noroeste 5 Noroeste 0 -- -- 76
2020-03-19 17:00:00 13.4 2 Norte 9 Noroeste 0 -- -- 75
2020-03-19 16:00:00 13.7 4 Noroeste 9 Oeste 0 -- -- 74
2020-03-19 15:00:00 13.7 4 Noroeste 12 Oeste 0 -- -- 73
2020-03-19 14:00:00 13.5 5 Noroeste 9 Noroeste 0 -- -- 73
2020-03-19 13:00:00 12.3 4 Norte 13 Noroeste 0 -- -- 76
2020-03-19 12:00:00 12.2 6 Noroeste 14 Noroeste 0 -- -- 76
2020-03-19 11:00:00 12 6 Oeste 10 Oeste 0 -- -- 78
2020-03-19 10:00:00 11.4 3 Nordeste 6 Nordeste 0 -- -- 78
2020-03-19 09:00:00 10 3 Oeste 10 Sur 0 -- -- 81
2020-03-19 08:00:00 8.1 7 Sudeste 10 Sudeste 0 -- -- 88
2020-03-19 07:00:00 8.4 5 Sudeste 10 Sudeste 0 -- -- 85
2020-03-19 06:00:00 8.9 5 Sur 8 Sur 0 -- -- 83
2020-03-19 05:00:00 9 5 Sudeste 9 Sudeste 0 -- -- 84
2020-03-19 04:00:00 9.8 4 Sur 10 Sudeste 0 -- -- 78
2020-03-19 03:00:00 9.9 5 Sudeste 9 Oeste 0 -- -- 76
2020-03-19 02:00:00 11 3 Sudeste 11 Sur 0 -- -- 69
2020-03-19 01:00:00 12 3 Nordeste 19 Sudeste 0 -- -- 69
2020-03-19 00:00:00 11.7 2 Nordeste 12 Sur 0 -- -- 70
2020-03-18 23:00:00 11.4 6 Sudeste 13 Sur 0 -- -- 76
2020-03-18 22:00:00 11 3 Sur 9 Sudeste 0 -- -- 79
2020-03-18 21:00:00 11.8 4 Sudeste 9 Sudeste 0 -- -- 75
2020-03-18 20:00:00 12.6 4 Sudoeste 8 Sur 0 -- -- 73
2020-03-18 19:00:00 14.8 2 Este 8 Oeste 0 -- -- 70
2020-03-18 18:00:00 16.5 3 Norte 12 Oeste 0 -- -- 64
2020-03-18 17:00:00 18 6 Oeste 14 Noroeste 0 -- -- 58
2020-03-18 16:00:00 18.5 3 Norte 12 Noroeste 0 -- -- 49
2020-03-18 15:00:00 16.8 2 Este 12 Noroeste 0 -- -- 59
2020-03-18 14:00:00 15.6 4 Noroeste 13 Noroeste 0 -- -- 58
2020-03-18 13:00:00 14.7 4 Nordeste 9 Nordeste 0 -- -- 56
2020-03-18 12:00:00 13 9 Noroeste 16 Noroeste 0 -- -- 67
2020-03-18 11:00:00 13.5 3 Sudeste 9 Noroeste 0 -- -- 65
2020-03-18 10:00:00 11.3 4 Sur 15 Sur 0 -- -- 72
2020-03-18 09:00:00 8.9 5 Este 14 Sur 0 -- -- 78
2020-03-18 08:00:00 7.7 8 Sudeste 15 Sur 0 -- -- 82
2020-03-18 07:00:00 6.7 5 Sudeste 19 Sur 0 -- -- 83
2020-03-18 06:00:00 8.4 7 Sur 15 Sur 0 -- -- 74
2020-03-18 05:00:00 7.8 7 Sur 14 Sudeste 0 -- -- 81
2020-03-18 04:00:00 7.6 8 Sudeste 17 Sur 0 -- -- 82
2020-03-18 03:00:00 8.1 7 Sur 18 Sur 0 -- -- 79
2020-03-18 02:00:00 7.9 9 Sur 12 Sudeste 0 -- -- 81
2020-03-18 01:00:00 7.8 6 Sudeste 15 Este 0 -- -- 82
2020-03-18 00:00:00 7.9 4 Sur 15 Sur 0 -- -- 82
2020-03-17 23:00:00 8.9 5 Sudeste 15 Sudeste 0 -- -- 77
2020-03-17 22:00:00 8.4 8 Sur 15 Sur 0 -- -- 80
2020-03-17 21:00:00 8.1 8 Sudeste 19 Sur 0 -- -- 79
2020-03-17 20:00:00 9 9 Sudeste 17 Sudeste 0 -- -- 75
2020-03-17 19:00:00 10.9 8 Sur 14 Sur 0 -- -- 67
2020-03-17 18:00:00 14.6 4 Norte 13 Noroeste 0 -- -- 56
2020-03-17 17:00:00 14.5 7 Noroeste 13 Norte 0 -- -- 50
2020-03-17 16:00:00 13.7 6 Norte 17 Norte 0 -- -- 58
2020-03-17 15:00:00 12.8 4 Oeste 12 Noroeste 0 -- -- 60
2020-03-17 14:00:00 11.9 5 Norte 13 Sur 0 -- -- 62
2020-03-17 13:00:00 11 4 Oeste 16 Oeste 0 -- -- 58
2020-03-17 12:00:00 10.2 8 Noroeste 19 Norte 0 -- -- 68
2020-03-17 11:00:00 8.6 10 Oeste 22 Oeste 0 -- -- 69
2020-03-17 10:00:00 7 5 Oeste 13 Oeste 0 -- -- 70
2020-03-17 09:00:00 3.3 3 Sudeste 13 Sudeste 0 -- -- 86
2020-03-17 08:00:00 1.7 10 Sur 16 Sur 0 -- -- 86
2020-03-17 07:00:00 0.6 5 Sudeste 15 Sur 0 -- -- 91
2020-03-17 06:00:00 0.8 7 Sudeste 15 Sur 0 -- -- 90
2020-03-17 05:00:00 1.6 8 Sur 15 Sur 0 -- -- 83
2020-03-17 04:00:00 0.6 8 Sur 13 Sur 0 -- -- 93
2020-03-17 03:00:00 0.5 7 Sudeste 15 Sudeste 0 -- -- 95
2020-03-17 02:00:00 0.8 4 Sudeste 13 Sur 0 -- -- 96
2020-03-17 01:00:00 1.2 6 Sudeste 10 Sudeste 0 -- -- 97
2020-03-17 00:00:00 1.8 2 Este 11 Sur 0 -- -- 96
2020-03-16 23:00:00 2 4 Sur 8 Sudeste 0 -- -- 97
2020-03-16 22:00:00 2.4 2 Sur 9 Sudoeste 0.2 -- -- 97
2020-03-16 21:00:00 2.4 7 Sur 10 Sudoeste 0.6 -- -- 98
2020-03-16 20:00:00 2.4 0 Calma 16 Sudoeste 0.6 -- -- 97
2020-03-16 19:00:00 2.3 6 Sudoeste 14 Sudoeste 1.4 -- -- 96
2020-03-16 18:00:00 2 5 Sudoeste 13 Sudoeste 3.2 -- -- 96
2020-03-16 17:00:00 1.7 5 Sur 15 Nordeste 4 -- -- 94
2020-03-16 16:00:00 2.9 3 Sur 26 Nordeste 2.8 -- -- 93
2020-03-16 15:00:00 2.8 8 Norte 23 Norte 3.2 -- -- 93
2020-03-16 14:00:00 2.4 6 Norte 18 Sudeste 3 -- -- 95
2020-03-16 13:00:00 1.8 7 Sur 24 Nordeste 4.6 -- -- 93
2020-03-16 12:00:00 2 11 Nordeste 29 Norte 4.4 -- -- 92
2020-03-16 11:00:00 1.2 4 Sudeste 26 Oeste 3.8 -- -- 95
2020-03-16 10:00:00 0.9 6 Sudoeste 13 Sur 2.4 -- -- 95
2020-03-16 09:00:00 0.9 4 Sudeste 15 Este 2 -- -- 96
2020-03-16 08:00:00 0.9 6 Sudeste 10 Sudeste 1 -- -- 97
2020-03-16 07:00:00 1.2 3 Sudoeste 10 Sudoeste 1 -- -- 95
2020-03-16 06:00:00 1.2 3 Sur 18 Nordeste 1 -- -- 94
2020-03-16 05:00:00 2.4 11 Nordeste 23 Nordeste 0 -- -- 90
2020-03-16 04:00:00 1.7 4 Sudoeste 20 Norte 0.4 -- -- 93
2020-03-16 03:00:00 3.2 6 Nordeste 20 Nordeste 0 -- -- 80
2020-03-16 02:00:00 3.5 10 Norte 27 Norte 0 -- -- 75
2020-03-16 01:00:00 3.8 13 Norte 23 Norte 0 -- -- 79
2020-03-16 00:00:00 4 10 Sudeste 21 Sudeste 0.8 -- -- 83
2020-03-15 23:00:00 5.4 14 Norte 40 Nordeste 0 -- -- 76
2020-03-15 22:00:00 8 6 Oeste 30 Norte 0 -- -- 75
2020-03-15 21:00:00 10.3 4 Noroeste 24 Sudoeste 0 -- -- 64
2020-03-15 20:00:00 11.6 5 Oeste 31 Sudoeste 0 -- -- 59
2020-03-15 19:00:00 13.5 12 Sudoeste 36 Sudoeste 0 -- -- 58
2020-03-15 18:00:00 15 15 Oeste 38 Oeste 0 -- -- 65
2020-03-15 17:00:00 15.9 12 Oeste 37 Oeste 0 -- -- 62
2020-03-15 16:00:00 17.5 13 Oeste 32 Sudoeste 0 -- -- 59
2020-03-15 15:00:00 17.3 15 Oeste 39 Oeste 0 -- -- 61
2020-03-15 14:00:00 16.4 13 Oeste 37 Oeste 0 -- -- 63
2020-03-15 13:00:00 15 10 Noroeste 22 Oeste 0 -- -- 74
2020-03-15 12:00:00 14.3 7 Noroeste 15 Noroeste 0 -- -- 68
2020-03-15 11:00:00 14.9 4 Noroeste 9 Norte 0 -- -- 62
2020-03-15 10:00:00 13.8 2 Nordeste 5 Noroeste 0 -- -- 64
2020-03-15 09:00:00 12.1 0 Calma 8 Sudeste 0 -- -- 65
2020-03-15 08:00:00 10 2 Sudoeste 12 Sudeste 0 -- -- 73
2020-03-15 07:00:00 8.6 6 Sudeste 12 Sudeste 0 -- -- 78
2020-03-15 06:00:00 9.2 6 Sudeste 11 Sudeste 0 -- -- 76
2020-03-15 05:00:00 10.2 7 Sudeste 12 Sudeste 0 -- -- 71
2020-03-15 04:00:00 9.7 10 Sur 17 Sur 0 -- -- 73
2020-03-15 03:00:00 9.9 10 Sur 17 Sur 0 -- -- 72
2020-03-15 02:00:00 10.4 10 Sur 15 Sur 0 -- -- 68
2020-03-15 01:00:00 10.4 8 Sudeste 16 Sur 0 -- -- 68
2020-03-15 00:00:00 11.9 12 Sur 18 Sur 0 -- -- 61
2020-03-14 23:00:00 11.1 12 Sur 17 Sur 0 -- -- 66
2020-03-14 22:00:00 12.2 14 Sur 18 Sur 0 -- -- 64
2020-03-14 21:00:00 13.2 13 Sur 17 Sur 0 -- -- 66
2020-03-14 20:00:00 14.2 14 Sur 16 Sur 0 -- -- 64
2020-03-14 19:00:00 19.2 3 Noroeste 9 Noroeste 0 -- -- 49
2020-03-14 18:00:00 19.6 5 Noroeste 13 Oeste 0 -- -- 48
2020-03-14 17:00:00 19.7 8 Noroeste 15 Oeste 0 -- -- 50
2020-03-14 16:00:00 19.4 8 Noroeste 20 Noroeste 0 -- -- 54
2020-03-14 15:00:00 19.1 8 Oeste 17 Oeste 0 -- -- 53
2020-03-14 14:00:00 18.3 7 Noroeste 22 Noroeste 0 -- -- 53
2020-03-14 13:00:00 17.4 10 Noroeste 15 Noroeste 0 -- -- 54
2020-03-14 12:00:00 16.7 6 Oeste 15 Noroeste 0 -- -- 53
2020-03-14 11:00:00 15.4 8 Oeste 16 Oeste 0 -- -- 55
2020-03-14 10:00:00 14.4 3 Oeste 9 Sur 0 -- -- 55
2020-03-14 09:00:00 10.6 7 Sur 12 Sudeste 0 -- -- 75
2020-03-14 08:00:00 7.7 7 Sur 12 Sur 0 -- -- 82
2020-03-14 07:00:00 8 9 Sur 11 Sur 0 -- -- 81
2020-03-14 06:00:00 8 6 Sur 14 Sur 0 -- -- 81
2020-03-14 05:00:00 8.3 8 Sur 13 Sur 0 -- -- 81
2020-03-14 04:00:00 8.9 9 Sur 13 Sur 0 -- -- 79
2020-03-14 03:00:00 9.2 7 Sudeste 12 Sudeste 0 -- -- 78
2020-03-14 02:00:00 9.7 5 Sudeste 11 Sur 0 -- -- 81
2020-03-14 01:00:00 11 5 Sudeste 32 Norte 0 -- -- 79
2020-03-14 00:00:00 9.9 5 Sudoeste 12 Sudeste 0 -- -- 84
2020-03-13 23:00:00 10.6 7 Sudeste 13 Este 0 -- -- 80
2020-03-13 22:00:00 11.2 5 Sudeste 12 Sur 0 -- -- 80
2020-03-13 21:00:00 12.4 6 Sur 13 Nordeste 0 -- -- 77
2020-03-13 20:00:00 14.8 6 Nordeste 24 Norte 0 -- -- 69
2020-03-13 19:00:00 15.4 3 Norte 16 Norte 0 -- -- 69
2020-03-13 18:00:00 16.2 5 Oeste 23 Norte 0 -- -- 66
2020-03-13 17:00:00 17.7 11 Noroeste 21 Noroeste 0 -- -- 62
2020-03-13 16:00:00 18.1 10 Noroeste 21 Norte 0 -- -- 60
2020-03-13 15:00:00 17.6 9 Noroeste 18 Noroeste 0 -- -- 63
2020-03-13 14:00:00 17.1 6 Oeste 14 Oeste 0 -- -- 65
2020-03-13 13:00:00 15.8 6 Oeste 15 Oeste 0 -- -- 67
2020-03-13 12:00:00 15.5 6 Sudoeste 19 Oeste 0 -- -- 67
2020-03-13 11:00:00 15.1 3 Nordeste 10 Oeste 0 -- -- 68
2020-03-13 10:00:00 12.9 2 Nordeste 8 Noroeste 0 -- -- 74
2020-03-13 09:00:00 11.4 2 Este 6 Sudeste 0 -- -- 81
2020-03-13 08:00:00 10.7 4 Sur 11 Sur 0 -- -- 76
2020-03-13 07:00:00 9.8 5 Sudeste 10 Sur 0 -- -- 81
2020-03-13 06:00:00 10.7 9 Sur 15 Sur 0 -- -- 76
2020-03-13 05:00:00 10.7 11 Sur 15 Sur 0 -- -- 78
2020-03-13 04:00:00 11.1 8 Sudeste 14 Sur 0 -- -- 79
2020-03-13 03:00:00 11.4 8 Sudeste 12 Sudeste 0 -- -- 79
2020-03-13 02:00:00 12.5 9 Sur 17 Sur 0 -- -- 76
2020-03-13 01:00:00 13.1 7 Sur 13 Sur 0 -- -- 76
2020-03-13 00:00:00 14 5 Sudeste 11 Sur 0 -- -- 73
2020-03-12 23:00:00 13.8 8 Sur 11 Sur 0 -- -- 74
2020-03-12 22:00:00 14.4 9 Sur 14 Sur 0 -- -- 72
2020-03-12 21:00:00 14.5 8 Sur 14 Sur 0 -- -- 73
2020-03-12 20:00:00 15.6 8 Sur 13 Sur 0 -- -- 69
2020-03-12 19:00:00 19.1 3 Norte 6 Noroeste 0 -- -- 59
2020-03-12 18:00:00 20.2 6 Noroeste 13 Oeste 0 -- -- 52
2020-03-12 17:00:00 20.7 7 Noroeste 17 Noroeste 0 -- -- 52
2020-03-12 16:00:00 19.9 8 Noroeste 22 Oeste 0 -- -- 53
2020-03-12 15:00:00 21 9 Noroeste 18 Noroeste 0 -- -- 60
2020-03-12 14:00:00 19.7 6 Noroeste 17 Noroeste 0 -- -- 63
2020-03-12 13:00:00 19 7 Noroeste 19 Oeste 0 -- -- 58
2020-03-12 12:00:00 19.5 9 Oeste 16 Oeste 0 -- -- 52
2020-03-12 11:00:00 18.1 4 Noroeste 10 Norte 0 -- -- 57
2020-03-12 10:00:00 16.8 4 Noroeste 13 Oeste 0 -- -- 55
2020-03-12 09:00:00 16.1 3 Noroeste 7 Norte 0 -- -- 54
2020-03-12 08:00:00 16.4 0 Calma 14 Sudoeste 0 -- -- 50
2020-03-12 07:00:00 18.9 10 Sur 27 Sudeste 0 -- -- 41
2020-03-12 06:00:00 20.4 11 Sur 28 Sur 0 -- -- 35
2020-03-12 05:00:00 19.1 9 Sudeste 21 Sur 0 -- -- 39
2020-03-12 04:00:00 16 4 Sudeste 17 Sudoeste 0 -- -- 50
2020-03-12 03:00:00 19.4 8 Sur 22 Este 0 -- -- 40
2020-03-12 02:00:00 16.5 4 Sudoeste 10 Sur 0 -- -- 47
2020-03-12 01:00:00 15.4 7 Sudeste 14 Sudeste 0 -- -- 47
2020-03-12 00:00:00 18.8 3 Sudoeste 12 Sur 0 -- -- 36
2020-03-11 23:00:00 17.9 4 Sudeste 13 Sur 0 -- -- 38
2020-03-11 22:00:00 15.1 8 Sudeste 13 Sudeste 0 -- -- 54
2020-03-11 21:00:00 15.4 6 Sudeste 11 Sudeste 0 -- -- 63
2020-03-11 20:00:00 15.8 6 Sudeste 10 Sudeste 0 -- -- 73
2020-03-11 19:00:00 18.7 5 Sudeste 8 Sudeste 0 -- -- 64
2020-03-11 18:00:00 20.7 3 Noroeste 10 Noroeste 0 -- -- 56
2020-03-11 17:00:00 21.4 6 Oeste 15 Oeste 0 -- -- 55
2020-03-11 16:00:00 22 7 Noroeste 13 Noroeste 0 -- -- 49
2020-03-11 15:00:00 21.5 8 Oeste 17 Noroeste 0 -- -- 44
2020-03-11 14:00:00 21.1 8 Noroeste 15 Noroeste 0 -- -- 46
2020-03-11 13:00:00 20.3 6 Noroeste 13 Oeste 0 -- -- 51
2020-03-11 12:00:00 19.2 5 Noroeste 9 Norte 0 -- -- 58
2020-03-11 11:00:00 18 5 Noroeste 8 Noroeste 0 -- -- 56
2020-03-11 10:00:00 17.6 0 Calma 10 Sur 0 -- -- 59
2020-03-11 09:00:00 12.8 8 Sudeste 15 Sur 0 -- -- 70
2020-03-11 08:00:00 11.2 11 Sur 19 Sur 0 -- -- 72
2020-03-11 07:00:00 11.3 9 Sudeste 13 Sur 0 -- -- 70
2020-03-11 06:00:00 11.3 7 Sudeste 12 Sur 0 -- -- 70
2020-03-11 05:00:00 10.8 8 Sudeste 13 Sur 0 -- -- 74
2020-03-11 04:00:00 11.7 9 Sur 13 Sur 0 -- -- 70
2020-03-11 03:00:00 11.5 9 Sur 14 Sur 0 -- -- 73
2020-03-11 02:00:00 11.4 9 Sudeste 14 Sur 0 -- -- 73
2020-03-11 01:00:00 11.5 10 Sur 17 Sur 0 -- -- 74
2020-03-11 00:00:00 11.7 9 Sur 15 Sur 0 -- -- 77
2020-03-10 23:00:00 11.5 8 Sudeste 12 Sudeste 0 -- -- 76
2020-03-10 22:00:00 12 8 Sudeste 14 Sur 0 -- -- 74
2020-03-10 21:00:00 12.4 9 Sudeste 13 Sur 0 -- -- 75
2020-03-10 20:00:00 13.5 9 Sur 13 Sur 0 -- -- 71
2020-03-10 19:00:00 18.5 0 Calma 10 Oeste 0 -- -- 52
2020-03-10 18:00:00 19.6 7 Oeste 15 Oeste 0 -- -- 53
2020-03-10 17:00:00 20.1 5 Noroeste 14 Oeste 0 -- -- 52
2020-03-10 16:00:00 19.5 5 Noroeste 14 Oeste 0 -- -- 50
2020-03-10 15:00:00 18.6 6 Noroeste 15 Noroeste 0 -- -- 53
2020-03-10 14:00:00 17.8 8 Noroeste 18 Noroeste 0 -- -- 56
2020-03-10 13:00:00 17.4 12 Noroeste 17 Noroeste 0 -- -- 54
2020-03-10 12:00:00 17.2 5 Noroeste 10 Noroeste 0 -- -- 46
2020-03-10 11:00:00 15.1 3 Norte 5 Nordeste 0 -- -- 52
2020-03-10 10:00:00 13.5 2 Norte 7 Sudoeste 0 -- -- 58
2020-03-10 09:00:00 11.4 5 Sur 14 Sur 0 -- -- 69
2020-03-10 08:00:00 9.2 8 Sudeste 13 Sudeste 0 -- -- 68
2020-03-10 07:00:00 8.8 8 Sudeste 15 Sur 0 -- -- 71
2020-03-10 06:00:00 7.9 9 Sur 12 Sur 0 -- -- 75
2020-03-10 05:00:00 7.5 7 Sudeste 12 Sur 0 -- -- 75
2020-03-10 04:00:00 7.4 8 Sudeste 13 Sudeste 0 -- -- 74
2020-03-10 03:00:00 8.2 11 Sur 14 Sur 0 -- -- 70
2020-03-10 02:00:00 7.9 4 Sudeste 12 Sur 0 -- -- 67
2020-03-10 01:00:00 7.6 6 Sudeste 13 Sudeste 0 -- -- 71
2020-03-10 00:00:00 8.3 6 Sudeste 16 Sur 0 -- -- 66
2020-03-09 23:00:00 10.1 8 Sudoeste 13 Sudoeste 0 -- -- 57
2020-03-09 22:00:00 9.2 2 Sudoeste 12 Sudoeste 0 -- -- 61
2020-03-09 21:00:00 10.9 9 Sudoeste 14 Sudoeste 0 -- -- 53
2020-03-09 20:00:00 11.2 8 Sudeste 13 Este 0 -- -- 54
2020-03-09 19:00:00 14.8 9 Norte 22 Norte 0 -- -- 40
2020-03-09 18:00:00 16.1 8 Noroeste 26 Noroeste 0 -- -- 36
2020-03-09 17:00:00 17.4 12 Norte 33 Nordeste 0 -- -- 32
2020-03-09 16:00:00 17.2 10 Norte 32 Este 0 -- -- 25
2020-03-09 15:00:00 17.6 13 Nordeste 26 Nordeste 0 -- -- 29
2020-03-09 14:00:00 16.2 11 Norte 28 Noroeste 0 -- -- 42
2020-03-09 13:00:00 14.6 8 Oeste 17 Oeste 0 -- -- 55
2020-03-09 12:00:00 12.2 9 Oeste 20 Sudoeste 0 -- -- 57
2020-03-09 11:00:00 10.6 11 Sudoeste 21 Sudoeste 0 -- -- 60
2020-03-09 10:00:00 8.1 7 Oeste 18 Oeste 0 -- -- 67
2020-03-09 09:00:00 6.4 5 Sudoeste 19 Sudoeste 0 -- -- 76
2020-03-09 08:00:00 6 9 Sudoeste 19 Sudoeste 0 -- -- 73
2020-03-09 07:00:00 5.5 6 Sudoeste 13 Sur 0 -- -- 69
2020-03-09 06:00:00 5.4 4 Sur 19 Sudoeste 0 -- -- 66
2020-03-09 05:00:00 6.4 7 Sudoeste 15 Sudeste 0 -- -- 68
2020-03-09 04:00:00 5.1 7 Sudeste 20 Este 0 -- -- 79
2020-03-09 03:00:00 5.4 7 Sur 14 Sur 0 -- -- 87
2020-03-09 02:00:00 5.9 8 Sudeste 14 Sudeste 0 -- -- 87
2020-03-09 01:00:00 7 8 Sudeste 18 Nordeste 0 -- -- 84
2020-03-09 00:00:00 7.9 6 Sudeste 18 Nordeste 0 -- -- 83
2020-03-08 23:00:00 10.5 10 Nordeste 35 Nordeste 0 -- -- 75
2020-03-08 22:00:00 10.5 2 Este 16 Nordeste 0 -- -- 73
2020-03-08 21:00:00 11.4 8 Nordeste 22 Este 0 -- -- 73
2020-03-08 20:00:00 11.8 4 Norte 14 Norte 0 -- -- 74
2020-03-08 19:00:00 12.3 4 Sudoeste 14 Oeste 0 -- -- 75
2020-03-08 18:00:00 13.5 5 Noroeste 13 Oeste 0 -- -- 68
2020-03-08 17:00:00 13.3 4 Oeste 14 Noroeste 0 -- -- 58
2020-03-08 16:00:00 13 4 Noroeste 13 Oeste 0 -- -- 61
2020-03-08 15:00:00 13.3 9 Noroeste 18 Oeste 0 -- -- 65
2020-03-08 14:00:00 13.8 11 Noroeste 18 Oeste 0 -- -- 62
2020-03-08 13:00:00 13.3 7 Noroeste 18 Oeste 0 -- -- 57
2020-03-08 12:00:00 12.8 0 Calma 9 Noroeste 0 -- -- 52
2020-03-08 11:00:00 12.3 3 Norte 7 Norte 0 -- -- 54
2020-03-08 10:00:00 10.7 2 Sudeste 16 Sur 0 -- -- 53
2020-03-08 09:00:00 5.1 9 Sur 16 Sur 0 -- -- 74
2020-03-08 08:00:00 3.7 10 Sur 16 Sur 0 -- -- 81
2020-03-08 07:00:00 4.1 9 Sur 15 Sur 0 -- -- 84
2020-03-08 06:00:00 4.2 9 Sur 16 Sur 0 -- -- 82
2020-03-08 05:00:00 4.1 7 Sudeste 12 Sur 0 -- -- 79
2020-03-08 04:00:00 4.6 9 Sur 17 Sur 0 -- -- 77
2020-03-08 03:00:00 5 8 Sudeste 16 Sur 0 -- -- 77
2020-03-08 02:00:00 5.4 13 Sur 17 Sur 0 -- -- 77
2020-03-08 01:00:00 5.9 6 Sudeste 18 Sur 0 -- -- 81
2020-03-08 00:00:00 6.5 13 Sur 18 Sur 0 -- -- 81
2020-03-07 23:00:00 6.8 10 Sur 18 Sur 0 -- -- 83
2020-03-07 22:00:00 7.5 12 Sur 18 Sur 0 -- -- 80
2020-03-07 21:00:00 8.2 9 Sur 17 Sur 0 -- -- 78
2020-03-07 20:00:00 9.6 11 Sur 15 Sur 0 -- -- 73
2020-03-07 19:00:00 14.4 4 Oeste 13 Oeste 0 -- -- 55
2020-03-07 18:00:00 15.1 5 Noroeste 14 Noroeste 0 -- -- 52
2020-03-07 17:00:00 15 7 Oeste 16 Oeste 0 -- -- 51
2020-03-07 16:00:00 14.7 8 Noroeste 20 Noroeste 0 -- -- 53
2020-03-07 15:00:00 14.9 7 Oeste 17 Oeste 0 -- -- 52
2020-03-07 14:00:00 13.9 9 Oeste 15 Oeste 0 -- -- 54
2020-03-07 13:00:00 13.2 4 Noroeste 9 Noroeste 0 -- -- 56
2020-03-07 12:00:00 11.7 5 Sur 15 Noroeste 0 -- -- 58
2020-03-07 11:00:00 9.9 6 Noroeste 11 Noroeste 0 -- -- 61
2020-03-07 10:00:00 7.3 4 Oeste 12 Sudoeste 0 -- -- 68
2020-03-07 09:00:00 5 8 Sudoeste 14 Oeste 0 -- -- 76
2020-03-07 08:00:00 2.6 5 Sudeste 14 Sur 0 -- -- 86
2020-03-07 07:00:00 3.3 8 Sur 10 Sur 0 -- -- 81
2020-03-07 06:00:00 2.5 4 Sur 12 Sur 0 -- -- 83
2020-03-07 05:00:00 2.3 6 Sudeste 16 Sudeste 0 -- -- 83
2020-03-07 04:00:00 3 5 Sudeste 15 Sur 0 -- -- 79
2020-03-07 03:00:00 4.4 0 Calma 15 Este 0 -- -- 72
2020-03-07 02:00:00 5.1 4 Este 26 Sudeste 0 -- -- 68
2020-03-07 01:00:00 5 7 Este 23 Nordeste 0 -- -- 68
2020-03-07 00:00:00 5.9 10 Este 28 Nordeste 0 -- -- 63
2020-03-06 23:00:00 6.4 9 Nordeste 22 Norte 0 -- -- 65
2020-03-06 22:00:00 6.7 9 Nordeste 22 Nordeste 0 -- -- 66
2020-03-06 21:00:00 7 7 Norte 23 Nordeste 0 -- -- 62
2020-03-06 20:00:00 7.7 10 Nordeste 28 Norte 0 -- -- 60
2020-03-06 19:00:00 9 7 Norte 36 Noroeste 0 -- -- 54
2020-03-06 18:00:00 10.1 16 Norte 42 Noroeste 0 -- -- 50
2020-03-06 17:00:00 10.2 17 Norte 36 Norte 0 -- -- 48
2020-03-06 16:00:00 10 21 Noroeste 45 Norte 0 -- -- 51
2020-03-06 15:00:00 9.8 24 Norte 54 Norte 0 -- -- 54
2020-03-06 14:00:00 9.8 22 Norte 49 Noroeste 0 -- -- 55
2020-03-06 13:00:00 8.9 19 Norte 41 Noroeste 0 -- -- 58
2020-03-06 12:00:00 7.6 19 Norte 34 Noroeste 0 -- -- 66
2020-03-06 11:00:00 6.8 10 Norte 36 Nordeste 0 -- -- 72
2020-03-06 10:00:00 6.1 13 Nordeste 37 Este 0 -- -- 73
2020-03-06 09:00:00 5.6 15 Nordeste 36 Nordeste 0 -- -- 73
2020-03-06 08:00:00 5 11 Norte 32 Noroeste 0 -- -- 75
2020-03-06 07:00:00 5 7 Noroeste 22 Oeste 0 -- -- 82
2020-03-06 06:00:00 5.1 3 Sudoeste 12 Sudeste 0 -- -- 95
2020-03-06 05:00:00 5.2 2 Noroeste 7 Noroeste 1.2 -- -- 97
2020-03-06 04:00:00 5.3 4 Sudeste 8 Sudeste 0.2 -- -- 94
2020-03-06 03:00:00 5.6 0 Calma 10 Noroeste 0 -- -- 92
2020-03-06 02:00:00 5.7 0 Calma 14 Noroeste 0 -- -- 83
2020-03-06 01:00:00 6.1 4 Noroeste 16 Noroeste 0 -- -- 79
2020-03-06 00:00:00 6.3 4 Oeste 8 Oeste 0 -- -- 79
2020-03-05 23:00:00 6.2 0 Calma 12 Oeste 0 -- -- 78
2020-03-05 22:00:00 7 5 Noroeste 17 Noroeste 0 -- -- 74
2020-03-05 21:00:00 8.5 8 Noroeste 23 Noroeste 0 -- -- 72
2020-03-05 20:00:00 9.8 12 Noroeste 29 Noroeste 0 -- -- 69
2020-03-05 19:00:00 10.8 15 Noroeste 32 Noroeste 0 -- -- 59
2020-03-05 18:00:00 11.5 15 Noroeste 29 Oeste 0 -- -- 57
2020-03-05 17:00:00 13.1 14 Noroeste 33 Oeste 0 -- -- 55
2020-03-05 16:00:00 12.2 6 Noroeste 26 Noroeste 0 -- -- 65
2020-03-05 15:00:00 11.3 9 Noroeste 22 Noroeste 0 -- -- 66
2020-03-05 14:00:00 10.8 10 Noroeste 26 Nordeste 0 -- -- 68
2020-03-05 13:00:00 10.4 14 Norte 30 Noroeste 0 -- -- 68
2020-03-05 12:00:00 10.2 12 Norte 24 Norte 0 -- -- 70
2020-03-05 11:00:00 9.4 6 Norte 17 Oeste 0.4 -- -- 87
2020-03-05 10:00:00 9.4 14 Oeste 36 Oeste 3.8 -- -- 99
2020-03-05 09:00:00 10.2 9 Sudoeste 39 Oeste 0.6 -- -- 93
2020-03-05 08:00:00 10.1 9 Sudoeste 49 Oeste 1 -- -- 91
2020-03-05 07:00:00 10.7 14 Sudoeste 36 Sudoeste 0 -- -- 88
2020-03-05 06:00:00 10.6 8 Oeste 35 Oeste 0 -- -- 90
2020-03-05 05:00:00 10.8 9 Oeste 23 Sudoeste 0 -- -- 92
2020-03-05 04:00:00 10.7 9 Oeste 27 Oeste 0 -- -- 94
2020-03-05 03:00:00 11 10 Sudoeste 26 Sudoeste 0.2 -- -- 94
2020-03-05 02:00:00 11 5 Oeste 20 Oeste 0 -- -- 97
2020-03-05 01:00:00 11.3 4 Oeste 14 Oeste 0 -- -- 97
2020-03-05 00:00:00 10.9 3 Sudeste 12 Noroeste 0 -- -- 95
2020-03-04 23:00:00 10.9 2 Sudeste 8 Oeste 0 -- -- 92
2020-03-04 22:00:00 10.6 3 Sudeste 10 Sudeste 0 -- -- 92
2020-03-04 21:00:00 10.5 2 Sudoeste 10 Sudeste 0 -- -- 92
2020-03-04 20:00:00 10.3 4 Sur 8 Sudeste 0 -- -- 93
2020-03-04 19:00:00 12.3 0 Calma 8 Oeste 0 -- -- 84
2020-03-04 18:00:00 12.7 5 Oeste 20 Noroeste 0 -- -- 82
2020-03-04 17:00:00 13.7 3 Este 17 Sudeste 0 -- -- 77
2020-03-04 16:00:00 12.8 8 Oeste 17 Oeste 0 -- -- 82
2020-03-04 15:00:00 13.2 5 Oeste 13 Noroeste 0 -- -- 77
2020-03-04 14:00:00 12.4 4 Sudoeste 17 Oeste 0 -- -- 83
2020-03-04 13:00:00 12.1 10 Oeste 21 Oeste 0 -- -- 90
2020-03-04 12:00:00 12.6 9 Noroeste 14 Noroeste 0 -- -- 77
2020-03-04 11:00:00 11.6 3 Noroeste 8 Oeste 0 -- -- 87
2020-03-04 10:00:00 10.5 2 Sudeste 8 Sudeste 0 -- -- 96
2020-03-04 09:00:00 9.6 3 Norte 10 Sudeste 0 -- -- 100
2020-03-04 08:00:00 9.6 0 Calma 8 Noroeste 0 -- -- 100
2020-03-04 07:00:00 9.5 0 Calma 5 Sudoeste 0.2 -- -- 100
2020-03-04 06:00:00 9.8 2 Sudoeste 7 Oeste 0 -- -- 100
2020-03-04 05:00:00 10.3 0 Calma 8 Oeste 0 -- -- 100
2020-03-04 04:00:00 10.5 3 Oeste 6 Oeste 0.4 -- -- 100
2020-03-04 03:00:00 10.5 0 Calma 8 Oeste 0 -- -- 100
2020-03-04 02:00:00 10.6 3 Sudeste 8 Noroeste 0.2 -- -- 100
2020-03-04 01:00:00 10.8 0 Calma 4 Oeste 0.2 -- -- 100
2020-03-04 00:00:00 10.8 0 Calma 4 Sudeste 0.2 -- -- 100
2020-03-03 23:00:00 10.7 4 Sudeste 9 Sudeste 0.2 -- -- 100
2020-03-03 22:00:00 10.8 4 Sudeste 8 Sudeste 0 -- -- 99
2020-03-03 21:00:00 10.5 6 Sudeste 11 Sudeste 0 -- -- 100
2020-03-03 20:00:00 10.6 4 Sur 8 Sur 0 -- -- 100
2020-03-03 19:00:00 10.5 3 Sudeste 9 Sur 0.2 -- -- 100
2020-03-03 18:00:00 10.3 0 Calma 5 Sudeste 0.6 -- -- 100
2020-03-03 17:00:00 9.7 0 Calma 4 Norte 0.8 -- -- 100
2020-03-03 16:00:00 9 0 Calma 6 Sudoeste 0.4 -- -- 100
2020-03-03 15:00:00 8.6 2 Sudoeste 7 Nordeste 0.8 -- -- 100
2020-03-03 14:00:00 8.2 2 Nordeste 9 Nordeste 1.2 -- -- 100
2020-03-03 13:00:00 7.7 6 Nordeste 13 Nordeste 0.2 -- -- 100
2020-03-03 12:00:00 7.4 3 Norte 16 Nordeste 0.6 -- -- 99
2020-03-03 11:00:00 7 5 Nordeste 14 Este 0.8 -- -- 99
2020-03-03 10:00:00 6.6 5 Nordeste 12 Nordeste 0.2 -- -- 98
2020-03-03 09:00:00 6.1 4 Nordeste 9 Nordeste 0 -- -- 96
2020-03-03 08:00:00 6 3 Norte 12 Noroeste 0 -- -- 93
2020-03-03 07:00:00 5.4 3 Noroeste 11 Oeste 0 -- -- 86
2020-03-03 06:00:00 5.3 0 Calma 11 Este 0 -- -- 85
2020-03-03 05:00:00 4.5 2 Sur 18 Noroeste 0 -- -- 86
2020-03-03 04:00:00 5.9 0 Calma 10 Sudeste 0 -- -- 82
2020-03-03 03:00:00 5.4 5 Sudeste 8 Sudeste 0 -- -- 87
2020-03-03 02:00:00 4.8 4 Este 14 Este 0 -- -- 82
2020-03-03 01:00:00 4.2 6 Sudeste 12 Sur 0 -- -- 83
2020-03-03 00:00:00 4.4 4 Sudeste 12 Sur 0 -- -- 83
2020-03-02 23:00:00 3.7 4 Sudeste 8 Sudeste 0 -- -- 87
2020-03-02 22:00:00 5.6 2 Norte 14 Norte 0 -- -- 71
2020-03-02 21:00:00 6.8 5 Norte 14 Norte 0 -- -- 68
2020-03-02 20:00:00 7.5 6 Noroeste 20 Oeste 0 -- -- 65
2020-03-02 19:00:00 7.5 6 Norte 21 Norte 0 -- -- 66
2020-03-02 18:00:00 8.4 8 Norte 22 Noroeste 0 -- -- 64
2020-03-02 17:00:00 8.1 14 Noroeste 32 Oeste 0 -- -- 66
2020-03-02 16:00:00 7.5 11 Noroeste 41 Norte 0 -- -- 73
2020-03-02 15:00:00 8 18 Noroeste 42 Oeste 0 -- -- 70
2020-03-02 14:00:00 8.7 19 Noroeste 43 Noroeste 0 -- -- 63
2020-03-02 13:00:00 7 10 Noroeste 28 Noroeste 0.2 -- -- 83
2020-03-02 12:00:00 7.6 13 Noroeste 32 Noroeste 0 -- -- 77
2020-03-02 11:00:00 7.7 17 Noroeste 36 Noroeste 0 -- -- 75
2020-03-02 10:00:00 7.4 6 Norte 15 Noroeste 0 -- -- 81
2020-03-02 09:00:00 7.4 7 Noroeste 20 Noroeste 0 -- -- 83
2020-03-02 08:00:00 8 7 Noroeste 36 Oeste 0 -- -- 78
2020-03-02 07:00:00 9.4 14 Noroeste 44 Oeste 0 -- -- 89
2020-03-02 06:00:00 10.2 18 Oeste 42 Oeste 3.6 -- -- 100
2020-03-02 05:00:00 10.7 22 Sudoeste 59 Sudoeste 2.2 -- -- 96
2020-03-02 04:00:00 10.9 26 Sudoeste 66 Sudoeste 2.8 -- -- 94
2020-03-02 03:00:00 10.8 24 Sudoeste 60 Sudoeste 1.2 -- -- 93
2020-03-02 02:00:00 10.6 22 Sudoeste 59 Oeste 3.4 -- -- 92
2020-03-02 01:00:00 10.6 23 Sudoeste 67 Sudoeste 0 -- -- 89
2020-03-02 00:00:00 11.5 24 Sudoeste 61 Oeste 1.2 -- -- 87